Time;durP1;ratioP1;P1;durP2;ratioP2;P2;SDS_P1;SDS_P2;PMS_P1;PMS_P2;Temp;Humidity;BMP_temperature;BMP_pressure;BME280_temperature;BME280_humidity;BME280_pressure;Samples;Min_cycle;Max_cycle;Signal;HPM_P1;HPM_P2
2023/05/19 00:01:02;;;;;;;2.90;1.80;;;11.50;99.90;;;11.55;96.80;101862.16;5165258;28;20048;-72
2023/05/19 00:03:36;;;;;;;3.45;1.80;;;11.40;99.90;;;11.51;97.17;101861.91;5167817;28;20045;-72
2023/05/19 00:06:09;;;;;;;3.08;1.67;;;11.30;99.90;;;11.47;97.59;101867.81;5167370;28;20042;-71
2023/05/19 00:08:41;;;;;;;6.28;2.22;;;11.30;99.90;;;11.42;97.98;101865.00;5166125;28;20128;-72
2023/05/19 00:11:14;;;;;;;3.35;1.80;;;11.20;99.90;;;11.35;98.09;101860.31;5151437;28;20038;-71
2023/05/19 00:13:48;;;;;;;4.78;1.90;;;11.20;99.90;;;11.27;98.50;101854.69;5167271;28;20050;-71
2023/05/19 00:16:23;;;;;;;3.67;2.30;;;11.20;99.90;;;11.22;98.86;101853.59;5152452;28;20038;-72
2023/05/19 00:18:56;;;;;;;3.72;2.13;;;11.10;99.90;;;11.19;99.40;101862.97;5151639;28;20418;-71
2023/05/19 00:21:30;;;;;;;2.85;2.08;;;11.00;99.90;;;11.13;99.32;101859.22;5134752;28;20045;-71
2023/05/19 00:24:02;;;;;;;3.60;1.85;;;11.00;99.90;;;11.10;99.81;101856.47;5141278;28;20141;-72
2023/05/19 00:26:34;;;;;;;3.53;1.90;;;10.90;99.90;;;11.06;99.96;101859.75;5147471;28;20046;-72
2023/05/19 00:29:10;;;;;;;2.92;1.90;;;10.90;99.90;;;11.01;100.00;101850.78;5141398;28;20046;-71
2023/05/19 00:31:43;;;;;;;2.95;1.88;;;10.90;99.90;;;10.98;100.00;101853.25;5136788;28;20042;-71
2023/05/19 00:34:15;;;;;;;3.22;1.85;;;10.80;99.90;;;10.95;100.00;101855.69;5163778;28;20399;-71
2023/05/19 00:36:47;;;;;;;2.65;1.83;;;10.80;99.90;;;10.92;100.00;101855.56;5131689;28;20046;-71
2023/05/19 00:39:20;;;;;;;4.53;2.20;;;10.80;99.90;;;10.89;100.00;101850.22;5116387;28;20102;-72
2023/05/19 00:41:53;;;;;;;2.40;1.90;;;10.80;99.90;;;10.88;100.00;101853.59;5141423;28;20043;-71
2023/05/19 00:44:25;;;;;;;3.63;2.05;;;10.80;99.90;;;10.85;100.00;101854.34;5120780;28;20054;-72
2023/05/19 00:46:58;;;;;;;4.35;1.92;;;10.70;99.90;;;10.81;100.00;101857.63;5142681;28;20186;-72
2023/05/19 00:49:30;;;;;;;4.13;2.00;;;10.70;99.90;;;10.77;100.00;101852.19;5149368;28;20531;-71
2023/05/19 00:52:03;;;;;;;2.95;1.85;;;10.70;99.90;;;10.74;100.00;101855.53;5147911;28;20311;-73
2023/05/19 00:54:35;;;;;;;3.90;1.95;;;10.60;99.90;;;10.71;100.00;101855.38;5160316;28;20034;-73
2023/05/19 00:57:08;;;;;;;6.03;2.20;;;10.60;99.90;;;10.67;100.00;101863.84;5141401;28;20559;-71
2023/05/19 00:59:40;;;;;;;3.70;2.00;;;10.60;99.90;;;10.65;100.00;101854.16;5157980;28;20069;-70
2023/05/19 01:02:14;;;;;;;4.38;2.45;;;10.50;99.90;;;10.62;100.00;101860.09;5129142;28;20074;-70
2023/05/19 01:04:46;;;;;;;3.65;1.73;;;10.50;99.90;;;10.58;100.00;101853.84;5146437;28;20499;-71
2023/05/19 01:07:19;;;;;;;3.10;2.00;;;10.50;99.90;;;10.56;100.00;101860.72;5128831;28;20054;-71
2023/05/19 01:09:52;;;;;;;4.82;1.85;;;10.40;99.90;;;10.52;100.00;101853.53;5146259;28;20047;-74
2023/05/19 01:12:24;;;;;;;2.67;1.90;;;10.40;99.90;;;10.49;100.00;101853.38;5154344;28;20122;-71
2023/05/19 01:14:59;;;;;;;3.97;1.52;;;10.40;99.90;;;10.45;100.00;101856.66;5152765;28;20046;-70
2023/05/19 01:17:43;;;;;;;4.43;1.90;;;10.40;99.90;;;10.42;100.00;101858.19;5145316;28;20530;-73
2023/05/19 01:20:21;;;;;;;3.58;1.70;;;10.30;99.90;;;10.38;100.00;101848.44;5129406;28;20058;-71
2023/05/19 01:23:28;;;;;;;2.80;1.95;;;10.30;99.90;;;10.34;100.00;101849.97;5154115;28;20096;-71
2023/05/19 01:26:49;;;;;;;4.03;2.05;;;10.20;99.90;;;10.28;100.00;101847.94;5152899;28;20142;-72
2023/05/19 01:29:43;;;;;;;3.25;2.20;;;10.20;99.90;;;10.25;100.00;101846.88;5126196;29;20188;-72
2023/05/19 01:32:19;;;;;;;3.90;2.05;;;10.20;99.90;;;10.23;100.00;101843.28;5143823;28;20511;-72
2023/05/19 01:34:55;;;;;;;3.97;1.73;;;10.10;99.90;;;10.20;100.00;101848.31;5145606;28;20117;-74
2023/05/19 01:37:29;;;;;;;2.92;2.03;;;10.10;99.90;;;10.16;100.00;101846.34;5164477;28;20110;-72
2023/05/19 01:40:01;;;;;;;3.47;2.00;;;10.10;99.90;;;10.13;100.00;101841.88;5156246;28;20047;-72
2023/05/19 01:42:36;;;;;;;3.13;1.60;;;10.00;99.90;;;10.10;100.00;101840.81;5142107;28;20097;-71
2023/05/19 01:45:11;;;;;;;2.70;1.98;;;10.00;99.90;;;10.10;100.00;101846.91;5137650;28;20524;-72
2023/05/19 01:47:51;;;;;;;3.83;1.92;;;10.00;99.90;;;10.09;100.00;101842.53;5128372;28;20055;-71
2023/05/19 01:50:24;;;;;;;4.35;1.77;;;10.00;99.90;;;10.06;100.00;101840.66;5132493;28;20049;-72
2023/05/19 01:52:56;;;;;;;3.70;1.90;;;10.00;99.90;;;10.03;100.00;101844.78;5148108;28;20562;-71
2023/05/19 01:55:28;;;;;;;2.45;1.63;;;9.90;99.90;;;9.97;100.00;101845.38;5165557;28;20064;-71
2023/05/19 01:58:10;;;;;;;3.83;1.83;;;9.90;99.90;;;9.95;100.00;101841.78;5139786;28;20407;-72
2023/05/19 02:00:53;;;;;;;2.80;1.88;;;9.90;99.90;;;9.93;100.00;101852.94;5149239;28;20070;-71
2023/05/19 02:03:46;;;;;;;3.25;1.80;;;9.80;99.90;;;9.89;100.00;101854.47;5152757;28;20134;-71
2023/05/19 02:06:37;;;;;;;2.80;1.52;;;9.80;99.90;;;9.84;100.00;101845.50;5156339;28;20057;-71
2023/05/19 02:09:15;;;;;;;3.53;1.90;;;9.80;99.90;;;9.82;100.00;101852.34;5137417;28;20054;-71
2023/05/19 02:11:55;;;;;;;2.92;1.73;;;9.70;99.90;;;9.82;100.00;101852.34;5160624;28;20046;-72
2023/05/19 02:14:33;;;;;;;3.13;1.73;;;9.70;99.90;;;9.80;100.00;101859.19;5149077;28;20038;-71
2023/05/19 02:17:06;;;;;;;1.50;1.27;;;9.70;99.90;;;9.77;100.00;101861.63;5162033;28;20053;-71
2023/05/19 02:19:40;;;;;;;2.10;1.50;;;9.70;99.90;;;9.74;100.00;101859.75;5153942;28;20451;-71
2023/05/19 02:22:12;;;;;;;3.85;1.83;;;9.60;99.90;;;9.72;100.00;101857.91;5135484;28;20128;-72
2023/05/19 02:24:46;;;;;;;3.13;1.65;;;9.60;99.90;;;9.68;100.00;101861.13;5134419;28;20050;-71
2023/05/19 02:27:18;;;;;;;3.38;1.90;;;9.60;99.90;;;9.63;100.00;101853.06;5127594;28;20070;-73
2023/05/19 02:29:50;;;;;;;3.92;1.88;;;9.60;99.90;;;9.60;100.00;101857.22;5147506;28;20141;-71
2023/05/19 02:32:22;;;;;;;2.88;1.60;;;9.50;99.90;;;9.57;100.00;101862.22;5123802;29;20053;-72
2023/05/19 02:34:56;;;;;;;3.58;1.52;;;9.50;99.90;;;9.52;100.00;101857.69;5156993;28;20050;-72
2023/05/19 02:37:28;;;;;;;3.67;1.63;;;9.40;99.90;;;9.50;100.00;101859.28;5144620;28;20133;-71
2023/05/19 02:40:00;;;;;;;3.28;1.63;;;9.40;99.90;;;9.48;100.00;101857.41;5144043;28;20074;-71
2023/05/19 02:42:32;;;;;;;3.10;1.83;;;9.40;99.90;;;9.45;100.00;101855.56;5159141;28;20045;-70
2023/05/19 02:45:06;;;;;;;3.70;1.80;;;9.40;99.90;;;9.42;100.00;101850.16;5158866;28;20078;-71
2023/05/19 02:47:38;;;;;;;2.08;1.80;;;9.30;99.90;;;9.40;100.00;101841.38;5146790;28;20042;-70
2023/05/19 02:50:13;;;;;;;3.45;1.83;;;9.30;99.90;;;9.40;100.00;101848.28;5143936;28;20411;-71
2023/05/19 02:52:45;;;;;;;2.15;1.77;;;9.30;99.90;;;9.41;100.00;101839.66;5150329;28;20054;-71
2023/05/19 02:55:17;;;;;;;2.92;1.70;;;9.30;99.90;;;9.41;100.00;101840.56;5126584;28;20050;-71
2023/05/19 02:57:49;;;;;;;3.50;2.05;;;9.40;99.90;;;9.40;100.00;101843.97;5126080;28;20043;-71
2023/05/19 03:00:22;;;;;;;2.92;1.67;;;9.30;99.90;;;9.35;100.00;101840.22;5125733;28;20058;-72
2023/05/19 03:02:54;;;;;;;2.78;1.70;;;9.30;99.90;;;9.31;100.00;101846.03;5125311;28;20482;-71
2023/05/19 03:05:28;;;;;;;2.70;1.52;;;9.30;99.90;;;9.28;100.00;101840.69;5125769;28;20511;-72
2023/05/19 03:08:01;;;;;;;4.00;1.90;;;9.20;99.90;;;9.24;100.00;101838.72;5125612;28;20403;-71
2023/05/19 03:10:33;;;;;;;2.90;1.92;;;9.20;99.90;;;9.19;100.00;101834.94;5143223;28;20046;-71
2023/05/19 03:13:05;;;;;;;4.65;1.60;;;9.10;99.90;;;9.16;100.00;101834.78;5125618;28;20053;-71
2023/05/19 03:15:37;;;;;;;2.85;1.77;;;9.10;99.90;;;9.12;100.00;101836.28;5126032;28;20475;-71
2023/05/19 03:18:10;;;;;;;4.15;1.80;;;9.10;99.90;;;9.09;100.00;101836.13;5142357;28;20090;-72
2023/05/19 03:20:44;;;;;;;3.47;1.70;;;9.00;99.90;;;9.09;100.00;101836.13;5125726;28;20050;-71
2023/05/19 03:23:16;;;;;;;2.80;1.60;;;9.00;99.90;;;9.10;100.00;101837.03;5141716;28;20130;-71
2023/05/19 03:25:49;;;;;;;3.78;1.85;;;9.00;99.90;;;9.09;100.00;101837.84;5142355;28;20130;-71
2023/05/19 03:28:22;;;;;;;2.17;1.75;;;9.00;99.90;;;9.07;100.00;101836.88;5125386;28;20105;-70
2023/05/19 03:30:54;;;;;;;4.03;2.00;;;9.00;99.90;;;9.02;100.00;101831.41;5125783;28;20051;-71
2023/05/19 03:33:30;;;;;;;2.97;1.90;;;9.00;99.90;;;8.97;100.00;101835.44;5125306;28;20050;-72
2023/05/19 03:36:04;;;;;;;1.95;1.63;;;8.90;99.90;;;8.92;100.00;101832.56;5125178;28;20054;-71
2023/05/19 03:38:40;;;;;;;3.28;1.90;;;8.90;99.90;;;8.90;100.00;101844.59;5142560;28;20086;-70
2023/05/19 03:41:12;;;;;;;4.43;1.80;;;8.90;99.90;;;8.87;100.00;101844.41;5142478;28;20511;-72
2023/05/19 03:43:46;;;;;;;2.60;1.65;;;8.80;99.90;;;8.83;100.00;101839.84;5125376;28;20047;-71
2023/05/19 03:46:18;;;;;;;4.32;1.83;;;8.80;99.90;;;8.80;100.00;101837.06;5124963;28;20046;-73
2023/05/19 03:49:06;;;;;;;2.63;1.77;;;8.80;99.90;;;8.77;100.00;101836.88;5142196;28;20046;-71
2023/05/19 03:52:02;;;;;;;2.75;1.40;;;8.70;99.90;;;8.74;100.00;101849.72;5110441;28;20086;-71
2023/05/19 03:54:57;;;;;;;2.78;1.90;;;8.70;99.90;;;8.70;100.00;101847.72;5124604;28;20057;-71
2023/05/19 03:57:29;;;;;;;4.05;1.80;;;8.70;99.90;;;8.68;100.00;101841.56;5125399;28;20054;-72
2023/05/19 04:00:01;;;;;;;2.63;1.92;;;8.70;99.90;;;8.66;100.00;101843.13;5124886;28;20057;-72
2023/05/19 04:02:44;;;;;;;3.88;1.83;;;8.60;99.90;;;8.68;100.00;101846.75;5142548;28;20512;-71
2023/05/19 04:05:16;;;;;;;2.25;1.63;;;8.60;99.90;;;8.72;100.00;101846.09;5124398;28;20062;-71
2023/05/19 04:07:50;;;;;;;3.58;1.83;;;8.70;99.90;;;8.77;100.00;101846.38;5125446;28;20138;-71
2023/05/19 04:10:22;;;;;;;2.63;1.65;;;8.70;99.90;;;8.80;100.00;101844.88;5142508;28;20042;-71
2023/05/19 04:12:55;;;;;;;3.22;2.10;;;8.70;99.90;;;8.82;100.00;101840.66;5124707;28;20113;-72
2023/05/19 04:15:27;;;;;;;2.85;1.52;;;8.80;99.90;;;8.82;100.00;101852.75;5125098;28;20500;-73
2023/05/19 04:18:00;;;;;;;2.67;2.00;;;8.80;99.90;;;8.84;100.00;101844.22;5142365;28;20336;-71
2023/05/19 04:20:33;;;;;;;2.90;1.98;;;8.80;99.90;;;8.85;100.00;101843.41;5142914;28;20047;-71
2023/05/19 04:23:07;;;;;;;3.15;1.83;;;8.80;99.90;;;8.88;100.00;101846.22;5124435;28;20435;-71
2023/05/19 04:25:39;;;;;;;3.40;1.83;;;8.80;99.90;;;8.92;100.00;101847.25;5142510;28;20504;-71
2023/05/19 04:28:12;;;;;;;3.35;1.80;;;8.90;99.90;;;8.94;100.00;101845.66;5141779;28;20039;-71
2023/05/19 04:30:45;;;;;;;3.58;2.40;;;8.90;99.90;;;8.97;100.00;101846.72;5142463;28;20105;-71
2023/05/19 04:33:18;;;;;;;4.32;2.25;;;8.90;99.90;;;9.01;100.00;101841.72;5124351;28;20050;-70
2023/05/19 04:35:51;;;;;;;3.47;1.75;;;9.00;99.90;;;9.05;100.00;101843.66;5125771;28;20074;-71
2023/05/19 04:38:27;;;;;;;3.92;2.03;;;9.00;99.90;;;9.09;100.00;101848.25;5136532;28;20130;-71
2023/05/19 04:41:00;;;;;;;3.08;1.90;;;9.10;99.90;;;9.15;100.00;101840.81;5128898;28;20047;-71
2023/05/19 04:43:33;;;;;;;3.45;1.77;;;9.10;99.90;;;9.22;100.00;101842.94;5145865;28;20560;-72
2023/05/19 04:46:05;;;;;;;3.75;1.92;;;9.20;99.90;;;9.29;100.00;101842.47;5145936;28;20046;-70
2023/05/19 04:48:37;;;;;;;3.83;2.20;;;9.20;99.90;;;9.41;100.00;101843.16;5145693;28;20042;-70
2023/05/19 04:51:12;;;;;;;4.18;2.10;;;9.30;99.90;;;9.66;100.00;101847.13;5130833;28;20268;-72
2023/05/19 04:53:46;;;;;;;5.47;2.70;;;9.50;99.90;;;10.02;100.00;101848.22;5133576;28;20051;-72
2023/05/19 04:56:19;;;;;;;4.82;2.72;;;9.80;99.90;;;10.44;100.00;101846.16;5128135;28;20050;-71
2023/05/19 04:58:52;;;;;;;8.43;3.70;;;10.10;99.90;;;10.93;100.00;101846.03;5127900;28;20451;-73
2023/05/19 05:01:25;;;;;;;8.20;3.42;;;10.60;99.90;;;11.45;100.00;101854.69;5136455;28;20134;-71
2023/05/19 05:04:00;;;;;;;4.30;2.85;;;11.00;99.90;;;11.92;100.00;101853.44;5127840;28;20507;-72
2023/05/19 05:06:33;;;;;;;5.88;2.60;;;11.50;99.90;;;12.37;98.24;101851.13;5128500;28;20047;-72
2023/05/19 05:09:06;;;;;;;6.22;2.85;;;11.90;99.90;;;12.83;94.66;101851.38;5127770;28;20126;-72
2023/05/19 05:11:40;;;;;;;5.88;2.67;;;12.30;99.90;;;13.22;92.22;101849.56;5145376;28;20045;-71
2023/05/19 05:14:12;;;;;;;5.28;2.65;;;12.70;99.90;;;13.60;89.63;101850.19;5127779;28;20058;-72
2023/05/19 05:16:46;;;;;;;6.53;2.78;;;13.10;99.90;;;13.91;87.12;101851.38;5127797;28;20138;-72
2023/05/19 05:19:23;;;;;;;5.70;2.60;;;13.40;99.90;;;14.20;83.78;101855.97;5127373;28;20094;-72
2023/05/19 05:21:56;;;;;;;4.57;2.40;;;13.70;99.90;;;14.50;82.86;101857.97;5127944;28;20577;-72
2023/05/19 05:24:31;;;;;;;3.75;2.00;;;14.00;99.90;;;14.84;82.16;101863.53;5128011;28;20041;-72
2023/05/19 05:27:07;;;;;;;4.30;2.30;;;14.20;99.90;;;15.12;78.75;101860.09;5127905;28;20062;-72
2023/05/19 05:29:39;;;;;;;4.65;2.10;;;14.50;99.20;;;15.38;76.64;101863.59;5127565;28;20062;-71
2023/05/19 05:32:13;;;;;;;6.78;2.30;;;14.80;97.80;;;15.74;76.60;101857.75;5127710;28;20054;-72
2023/05/19 05:34:45;;;;;;;4.43;2.10;;;15.10;97.90;;;16.16;74.24;101858.09;5127647;28;20392;-71
2023/05/19 05:37:17;;;;;;;3.83;2.22;;;15.50;96.50;;;16.45;73.44;101856.31;5127598;28;20057;-72
2023/05/19 05:39:50;;;;;;;5.63;2.47;;;15.80;96.00;;;16.73;71.38;101862.34;5127669;28;20043;-71
2023/05/19 05:42:23;;;;;;;6.25;2.53;;;16.10;94.40;;;16.86;70.25;101850.41;5144985;28;20046;-72
2023/05/19 05:44:56;;;;;;;6.70;2.42;;;16.20;93.20;;;16.99;69.61;101856.00;5144428;28;20523;-71
2023/05/19 05:47:29;;;;;;;4.38;2.03;;;16.40;92.50;;;17.03;69.40;101863.16;5126795;28;20524;-72
2023/05/19 05:50:02;;;;;;;3.40;1.70;;;16.40;92.00;;;17.05;69.19;101861.44;5126586;28;20051;-72
2023/05/19 05:52:37;;;;;;;6.03;1.88;;;16.50;91.80;;;17.16;68.95;101859.09;5127851;28;20512;-72
2023/05/19 05:55:13;;;;;;;4.32;1.90;;;16.50;91.50;;;17.44;68.52;101855.34;5180806;23;20046;-67
2023/05/19 05:57:47;;;;;;;6.85;1.73;;;16.80;91.40;;;17.73;68.43;101855.16;5175438;28;20045;-68
2023/05/19 06:00:21;;;;;;;5.68;1.92;;;17.00;91.10;;;18.00;67.95;101847.88;5201527;28;20038;-70
2023/05/19 06:02:58;;;;;;;8.00;1.92;;;17.20;90.70;;;18.18;68.18;101852.59;5200388;28;20437;-69
2023/05/19 06:05:31;;;;;;;3.58;1.83;;;17.50;90.80;;;18.34;67.18;101853.81;5183994;28;20045;-60
2023/05/19 06:08:04;;;;;;;4.78;1.88;;;17.60;90.00;;;18.37;66.46;101853.88;5167505;28;20081;-57
2023/05/19 06:10:40;;;;;;;6.88;1.75;;;17.70;88.70;;;18.33;66.29;101857.31;5185257;28;20042;-60
2023/05/19 06:13:16;;;;;;;5.32;2.08;;;17.70;88.40;;;18.41;65.88;101855.72;5167328;28;20068;-58
2023/05/19 06:15:49;;;;;;;5.30;1.60;;;17.70;87.40;;;18.62;63.94;101850.84;5183562;28;20057;-55
2023/05/19 06:18:41;;;;;;;3.88;1.52;;;17.90;84.80;;;18.92;63.92;101854.94;5184351;28;20148;-58
2023/05/19 06:21:13;;;;;;;4.80;1.95;;;18.10;84.50;;;18.98;63.52;101849.75;5183601;28;20049;-57
2023/05/19 06:23:47;;;;;;;6.80;1.38;;;18.20;83.70;;;19.06;63.09;101858.69;5167058;28;20411;-59
2023/05/19 06:26:20;;;;;;;5.65;2.10;;;18.30;82.90;;;19.17;62.49;101846.56;5183252;28;20053;-59
2023/05/19 06:28:53;;;;;;;4.75;1.38;;;18.50;81.80;;;19.41;61.30;101853.06;5166976;28;20038;-58
2023/05/19 06:31:26;;;;;;;1.60;1.20;;;18.60;80.40;;;19.55;59.10;101848.88;5167163;28;20485;-59
2023/05/19 06:34:01;;;;;;;3.95;1.13;;;18.80;77.10;;;19.68;59.48;101845.56;5166880;28;20410;-59
2023/05/19 06:36:34;;;;;;;2.10;1.20;;;18.90;77.10;;;19.75;58.44;101841.25;5183247;28;20045;-58
2023/05/19 06:39:07;;;;;;;4.35;1.30;;;19.10;75.90;;;19.77;58.37;101848.38;5183118;28;20041;-59
2023/05/19 06:41:42;;;;;;;2.60;1.20;;;19.10;75.20;;;19.90;58.77;101851.19;5166812;28;20045;-59
2023/05/19 06:44:14;;;;;;;2.78;1.33;;;19.20;75.30;;;20.12;57.89;101847.03;5167013;28;20061;-56
2023/05/19 06:46:50;;;;;;;2.58;1.00;;;19.40;74.00;;;20.22;57.58;101841.88;5167006;28;20544;-56
2023/05/19 06:49:22;;;;;;;4.47;1.40;;;19.60;73.50;;;20.39;57.60;101844.72;5166827;28;20046;-58
2023/05/19 06:51:55;;;;;;;3.78;1.17;;;19.70;73.20;;;20.51;56.44;101846.63;5166916;28;20041;-59
2023/05/19 06:54:27;;;;;;;3.67;1.33;;;19.80;71.70;;;20.62;55.95;101852.94;5166565;28;20565;-59
2023/05/19 06:57:01;;;;;;;3.78;1.27;;;19.90;70.90;;;20.79;55.74;101845.16;5182860;28;20096;-58
2023/05/19 06:59:33;;;;;;;4.72;1.48;;;20.00;70.60;;;21.03;55.43;101852.44;5165546;28;20049;-59
2023/05/19 07:02:05;;;;;;;3.78;1.10;;;20.20;70.20;;;21.29;55.48;101845.59;5166353;28;20056;-59
2023/05/19 07:04:38;;;;;;;5.68;1.77;;;20.50;70.50;;;21.43;54.66;101842.16;5166412;28;20038;-57
2023/05/19 07:07:11;;;;;;;4.07;1.35;;;20.60;69.20;;;21.30;54.55;101846.50;5166303;28;20046;-57
2023/05/19 07:09:43;;;;;;;2.92;1.20;;;20.60;68.50;;;21.33;54.14;101842.13;5184037;28;20034;-58
2023/05/19 07:12:17;;;;;;;4.57;1.30;;;20.70;67.90;;;21.45;53.77;101846.59;5182767;28;20052;-59
2023/05/19 07:14:49;;;;;;;3.47;1.23;;;20.70;67.30;;;21.58;54.04;101840.50;5166267;28;20045;-57
2023/05/19 07:17:22;;;;;;;2.55;1.13;;;20.80;67.70;;;21.76;53.86;101842.38;5182887;28;20049;-58
2023/05/19 07:19:54;;;;;;;4.28;1.17;;;21.00;67.60;;;21.93;55.68;101835.38;5166460;28;20117;-57
2023/05/19 07:22:26;;;;;;;1.83;1.10;;;21.10;69.20;;;22.04;55.43;101837.19;5166583;28;20561;-61
2023/05/19 07:24:58;;;;;;;4.60;1.70;;;21.20;69.00;;;22.05;55.37;101833.66;5166382;28;20049;-61
2023/05/19 07:27:32;;;;;;;5.20;1.23;;;21.30;68.70;;;22.19;56.01;101837.28;5166450;28;20042;-61
2023/05/19 07:30:05;;;;;;;4.00;1.20;;;21.40;69.50;;;22.39;54.15;101830.25;5184108;28;20050;-59
2023/05/19 07:32:37;;;;;;;3.65;1.25;;;21.60;67.50;;;22.47;53.42;101836.47;5184191;28;20458;-61
2023/05/19 07:35:09;;;;;;;3.55;1.23;;;21.70;66.60;;;22.53;53.68;101832.94;5183921;28;20045;-61
2023/05/19 07:37:41;;;;;;;3.45;1.30;;;21.70;66.50;;;22.62;52.33;101826.75;5184085;28;20435;-61
2023/05/19 07:40:13;;;;;;;4.78;1.42;;;21.70;65.10;;;22.80;52.19;101829.44;5183901;28;20057;-61
2023/05/19 07:42:49;;;;;;;3.28;1.15;;;21.90;64.90;;;23.01;51.81;101832.13;5169893;28;20047;-62
2023/05/19 07:45:21;;;;;;;3.53;1.05;;;22.10;64.70;;;23.08;51.16;101837.44;5141862;28;20500;-58
2023/05/19 07:47:54;;;;;;;3.50;0.90;;;22.20;63.70;;;22.98;51.14;101832.13;5143269;28;20106;-59
2023/05/19 07:50:26;;;;;;;3.08;1.13;;;22.10;63.40;;;22.81;51.55;101836.53;5143172;28;20038;-58
2023/05/19 07:52:58;;;;;;;3.40;1.20;;;22.00;63.90;;;22.75;51.61;101824.09;5143028;28;20146;-58
2023/05/19 07:55:30;;;;;;;3.00;1.10;;;21.90;64.00;;;22.72;51.39;101824.13;5151232;28;20035;-60
2023/05/19 07:58:04;;;;;;;2.13;1.00;;;21.80;63.70;;;22.71;51.48;101826.78;5149723;28;20049;-58
2023/05/19 08:00:36;;;;;;;3.00;0.98;;;21.70;63.80;;;22.72;51.06;101823.22;5163641;28;20104;-59
2023/05/19 08:03:08;;;;;;;2.45;1.17;;;21.70;63.30;;;22.78;51.38;101817.03;5150436;28;20549;-58
2023/05/19 08:05:40;;;;;;;2.97;1.10;;;21.70;63.70;;;22.99;51.19;101823.28;5146779;28;20045;-57
2023/05/19 08:08:15;;;;;;;5.90;1.38;;;21.70;63.90;;;23.28;51.61;101814.41;5149006;28;20522;-57
2023/05/19 08:10:47;;;;;;;3.13;1.20;;;21.80;64.60;;;23.69;51.53;101821.44;5148724;28;20404;-57
2023/05/19 08:13:20;;;;;;;3.33;0.88;;;22.00;64.90;;;24.15;50.05;101815.91;5154810;28;20145;-58
2023/05/19 08:15:58;;;;;;;4.00;1.20;;;22.30;63.70;;;24.59;49.24;101808.56;5154202;28;20065;-58
2023/05/19 08:18:30;;;;;;;4.05;1.00;;;22.50;63.00;;;25.03;49.02;101803.75;5153820;28;20057;-59
2023/05/19 08:21:02;;;;;;;4.75;0.93;;;22.70;63.30;;;25.65;47.75;101797.81;5147385;28;20042;-59
2023/05/19 08:23:36;;;;;;;2.60;0.95;;;23.00;62.50;;;26.23;46.17;101799.75;5163480;28;20395;-60
2023/05/19 08:26:08;;;;;;;2.90;1.13;;;23.30;61.10;;;26.87;46.05;101797.91;5151375;28;20055;-59
2023/05/19 08:28:41;;;;;;;4.00;1.23;;;23.60;61.40;;;27.58;45.16;101790.38;5145022;28;20053;-60
2023/05/19 08:31:13;;;;;;;3.83;0.90;;;24.00;60.90;;;28.47;43.54;101795.63;5151279;28;20047;-60
2023/05/19 08:33:45;;;;;;;3.58;1.00;;;24.40;59.90;;;29.39;41.49;101794.16;5149419;28;20047;-60
2023/05/19 08:36:18;;;;;;;3.05;1.15;;;24.90;58.30;;;30.21;40.97;101797.19;5152156;28;20043;-60
2023/05/19 08:38:50;;;;;;;3.50;1.20;;;25.60;57.80;;;31.05;39.23;101797.13;5145842;28;20053;-60
2023/05/19 08:41:23;;;;;;;3.28;1.00;;;26.40;55.90;;;31.73;38.20;101783.91;5146148;28;20065;-60
2023/05/19 08:43:56;;;;;;;3.53;1.00;;;27.20;54.50;;;32.33;37.71;101780.66;5145824;28;20082;-61
2023/05/19 08:46:29;;;;;;;2.97;1.15;;;27.80;53.80;;;32.92;37.39;101789.94;5145591;28;20053;-59
2023/05/19 08:49:10;;;;;;;3.35;0.93;;;28.40;53.20;;;33.18;35.63;101786.97;5144550;28;20066;-60
2023/05/19 08:51:51;;;;;;;4.05;1.08;;;28.80;51.20;;;32.89;34.98;101785.56;5152182;28;20050;-61
2023/05/19 08:54:29;;;;;;;3.45;1.00;;;28.80;49.60;;;33.06;34.85;101782.16;5145467;28;20456;-60
2023/05/19 08:57:02;;;;;;;1.90;0.80;;;29.00;49.40;;;33.37;35.77;101775.34;5145673;28;20053;-59
2023/05/19 08:59:35;;;;;;;3.67;1.20;;;29.20;50.20;;;33.65;35.79;101770.50;5136005;28;20121;-60
2023/05/19 09:02:09;;;;;;;;;;;29.40;50.30;;;33.16;35.00;101767.28;5132720;28;20078;-59
2023/05/19 09:04:44;;;;;;;3.53;0.93;;;29.20;49.10;;;33.14;34.90;101763.78;5125553;28;19962;-59
2023/05/19 09:07:17;;;;;;;3.33;0.95;;;29.10;49.10;;;33.33;34.34;101768.34;5144951;28;20126;-59
2023/05/19 09:09:49;;;;;;;2.72;1.10;;;29.20;48.50;;;33.30;33.73;101768.47;5145246;28;20050;-58
2023/05/19 09:12:22;;;;;;;2.75;0.90;;;29.30;48.00;;;32.86;34.53;101753.28;5145223;28;20050;-58
2023/05/19 09:14:56;;;;;;;2.75;1.10;;;29.10;48.00;;;32.45;35.21;101749.63;5145240;28;20271;-59
2023/05/19 09:17:28;;;;;;;3.05;1.00;;;28.90;48.40;;;31.70;36.08;101752.56;5145328;28;20035;-58
2023/05/19 09:20:03;;;;;;;2.58;1.10;;;28.60;48.90;;;30.94;37.41;101745.44;5145391;28;20411;-61
2023/05/19 09:22:41;;;;;;;3.53;1.08;;;28.20;49.30;;;30.14;37.62;101744.53;5144470;28;20097;-59
2023/05/19 09:25:20;;;;;;;3.45;1.17;;;27.80;49.30;;;28.92;39.25;101742.66;5145370;28;20043;-59
2023/05/19 09:27:54;;;;;;;2.63;0.93;;;27.00;49.80;;;28.24;40.55;101731.81;5145185;28;20050;-58
2023/05/19 09:30:28;;;;;;;3.17;1.02;;;26.50;50.70;;;27.53;41.46;101725.31;5144399;28;20122;-59
2023/05/19 09:33:00;;;;;;;3.60;1.08;;;26.10;51.90;;;26.82;41.76;101729.34;5147591;28;20419;-59
2023/05/19 09:35:34;;;;;;;3.15;1.23;;;25.70;51.30;;;26.34;42.44;101727.41;5158825;28;20049;-58
2023/05/19 09:38:06;;;;;;;1.35;0.80;;;25.30;51.60;;;26.09;43.57;101729.59;5144784;28;20047;-58
2023/05/19 09:40:38;;;;;;;2.90;1.17;;;25.10;52.50;;;25.93;44.37;101714.69;5144492;28;20141;-58
2023/05/19 09:43:11;;;;;;;3.88;1.05;;;24.90;53.30;;;25.67;44.73;101710.53;5144915;28;20042;-58
2023/05/19 09:45:44;;;;;;;2.03;1.00;;;24.70;53.30;;;25.16;45.29;101709.38;5144749;28;20514;-59
2023/05/19 09:48:16;;;;;;;2.30;1.10;;;24.30;53.80;;;24.64;46.39;101705.44;5144440;28;20047;-59
2023/05/19 09:50:50;;;;;;;2.83;1.20;;;23.90;54.50;;;24.18;47.69;101712.00;5144545;28;20518;-58
2023/05/19 09:53:22;;;;;;;1.98;1.10;;;23.50;55.50;;;23.96;48.84;101706.81;5155791;28;20054;-59
2023/05/19 09:55:57;;;;;;;5.53;1.10;;;23.20;56.60;;;24.13;50.04;101711.16;5141983;28;20149;-60
2023/05/19 09:58:33;;;;;;;3.42;1.17;;;23.30;58.00;;;24.39;49.06;101677.25;5145183;28;20555;-58
2023/05/19 10:01:08;;;;;;;4.05;1.13;;;23.40;57.70;;;23.73;47.15;101701.59;5144080;28;20078;-59
2023/05/19 10:03:41;;;;;;;2.85;1.20;;;23.00;55.60;;;23.36;46.80;101700.88;5143817;28;20093;-59
2023/05/19 10:06:15;;;;;;;3.03;0.98;;;22.80;55.20;;;23.28;46.64;101698.25;5145947;28;20054;-58
2023/05/19 10:08:49;;;;;;;3.15;1.27;;;22.70;55.10;;;23.36;45.70;101700.88;5143761;28;20047;-59
2023/05/19 10:11:22;;;;;;;3.97;1.30;;;22.70;54.00;;;23.78;45.71;101705.13;5144078;28;20496;-59
2023/05/19 10:13:54;;;;;;;1.85;1.00;;;22.90;54.50;;;23.90;44.34;101698.84;5151489;28;20086;-62
2023/05/19 10:16:31;;;;;;;2.70;1.08;;;23.00;53.20;;;24.12;46.58;101699.59;5144233;28;20130;-60
2023/05/19 10:19:04;;;;;;;4.40;1.35;;;23.20;55.20;;;24.47;46.59;101691.38;5152417;28;20066;-59
2023/05/19 10:21:36;;;;;;;5.60;1.20;;;23.50;55.50;;;24.85;46.57;101692.81;5169146;28;20038;-59
2023/05/19 10:24:08;;;;;;;3.03;1.20;;;23.80;55.70;;;25.04;45.75;101693.47;5147355;28;20043;-60
2023/05/19 10:26:46;;;;;;;4.28;1.23;;;24.00;54.60;;;25.15;45.87;101680.94;5151151;28;20069;-60
2023/05/19 10:29:23;;;;;;;5.03;1.30;;;24.20;54.80;;;24.90;44.74;101685.63;5152021;28;20043;-59
2023/05/19 10:32:02;;;;;;;3.80;1.20;;;24.10;53.70;;;24.48;45.19;101677.16;5171483;28;20545;-58
2023/05/19 10:35:09;;;;;;;6.65;1.38;;;23.80;53.80;;;24.00;46.34;101681.06;5169732;28;20578;-59
2023/05/19 10:37:48;;;;;;;3.22;1.45;;;23.40;54.60;;;23.75;47.46;101683.88;5144312;28;20050;-59
2023/05/19 10:40:27;;;;;;;3.42;1.60;;;23.10;55.40;;;23.60;48.98;101677.69;5159032;28;20042;-59
2023/05/19 10:43:15;;;;;;;2.85;1.63;;;22.90;56.80;;;23.42;47.86;101676.91;5140977;28;20061;-58